createdAt,value
2023-03-02T00:02:15.283Z,-0.44
2023-03-02T00:04:46.523Z,-0.44
2023-03-02T00:07:19.457Z,-0.43
2023-03-02T00:09:46.250Z,-0.42
2023-03-02T00:12:13.718Z,-0.44
2023-03-02T00:14:40.392Z,-0.41
2023-03-02T00:17:08.050Z,-0.52
2023-03-02T00:19:34.690Z,-0.57
2023-03-02T00:22:01.265Z,-0.51
2023-03-02T00:24:27.919Z,-0.55
2023-03-02T00:26:54.641Z,-0.67
2023-03-02T00:29:21.325Z,-0.63
2023-03-02T00:31:48.419Z,-0.65
2023-03-02T00:34:15.151Z,-0.60
2023-03-02T00:36:42.057Z,-0.65
2023-03-02T00:39:08.915Z,-0.62
2023-03-02T00:41:35.551Z,-0.62
2023-03-02T00:44:02.121Z,-0.81
2023-03-02T00:46:28.842Z,-0.69
2023-03-02T00:48:55.615Z,-0.74
2023-03-02T00:51:22.305Z,-0.83
2023-03-02T00:53:48.899Z,-0.82
2023-03-02T00:56:15.571Z,-0.80
2023-03-02T00:58:47.412Z,-0.91
2023-03-02T01:01:15.425Z,-0.96
2023-03-02T01:03:46.639Z,-1.03
2023-03-02T01:06:20.632Z,-0.86
2023-03-02T01:08:47.915Z,-0.83
2023-03-02T01:11:17.513Z,-0.93
2023-03-02T01:13:44.955Z,-0.88
2023-03-02T01:16:12.164Z,-0.88
2023-03-02T01:18:39.850Z,-0.77
2023-03-02T01:21:13.022Z,-0.84
2023-03-02T01:23:39.741Z,-0.86
2023-03-02T01:26:07.452Z,-0.90
2023-03-02T01:28:34.121Z,-0.79
2023-03-02T01:31:02.693Z,-0.78
2023-03-02T01:33:30.262Z,-0.91
2023-03-02T01:35:56.958Z,-0.81
2023-03-02T01:38:23.669Z,-0.83
2023-03-02T01:40:50.342Z,-0.84
2023-03-02T01:43:17.118Z,-0.80
2023-03-02T01:45:54.238Z,-0.84
2023-03-02T01:49:02.689Z,-0.87
2023-03-02T01:51:43.706Z,-0.79
2023-03-02T01:54:22.823Z,-0.79
2023-03-02T01:57:01.200Z,-0.87
2023-03-02T01:59:31.060Z,-0.92
2023-03-02T02:02:00.823Z,-0.88
2023-03-02T02:04:30.988Z,-0.89
2023-03-02T02:07:03.671Z,-0.88
2023-03-02T02:09:33.549Z,-0.90
2023-03-02T02:12:00.739Z,-0.93
2023-03-02T02:14:27.855Z,-0.90
2023-03-02T02:16:55.066Z,-0.90
2023-03-02T02:19:40.142Z,-0.90
2023-03-02T02:22:09.974Z,-0.87
2023-03-02T02:24:44.148Z,-0.94
2023-03-02T02:27:12.214Z,-0.95
2023-03-02T02:29:47.450Z,-1.00
2023-03-02T02:32:21.842Z,-1.03
2023-03-02T02:34:59.403Z,-1.07
2023-03-02T02:37:34.376Z,-1.10
2023-03-02T02:40:07.242Z,-1.12
2023-03-02T02:42:39.618Z,-1.28
2023-03-02T02:45:17.646Z,-1.11
2023-03-02T02:47:44.454Z,-1.38
2023-03-02T02:50:19.647Z,-1.48
2023-03-02T02:52:52.584Z,-1.46
2023-03-02T02:55:22.769Z,-1.49
2023-03-02T02:57:54.856Z,-1.40
2023-03-02T03:00:23.390Z,-1.34
2023-03-02T03:02:58.889Z,-1.36
2023-03-02T03:05:25.508Z,-1.45
2023-03-02T03:07:52.943Z,-1.47
2023-03-02T03:10:22.629Z,-1.56
2023-03-02T03:12:50.628Z,-1.56
2023-03-02T03:15:19.549Z,-1.73
2023-03-02T03:17:59.255Z,-1.98
2023-03-02T03:20:28.458Z,-2.19
2023-03-02T03:22:55.394Z,-2.18
2023-03-02T03:25:25.755Z,-1.97
2023-03-02T03:27:54.293Z,-1.96
2023-03-02T03:30:22.670Z,-2.08
2023-03-02T03:32:49.549Z,-2.16
2023-03-02T03:35:16.779Z,-2.25
2023-03-02T03:37:43.965Z,-2.23
2023-03-02T03:40:11.884Z,-1.98
2023-03-02T03:42:42.092Z,-1.91
2023-03-02T03:45:09.244Z,-1.78
2023-03-02T03:47:37.101Z,-1.81
2023-03-02T03:50:05.753Z,-1.77
2023-03-02T03:52:33.042Z,-1.60
2023-03-02T03:55:07.999Z,-1.43
2023-03-02T03:57:34.971Z,-1.31
2023-03-02T04:00:01.740Z,-1.24
2023-03-02T04:02:28.394Z,-1.19
2023-03-02T04:04:55.049Z,-1.23
2023-03-02T04:07:22.072Z,-1.21
2023-03-02T04:09:48.725Z,-1.19
2023-03-02T04:12:15.839Z,-1.22
2023-03-02T04:14:52.183Z,-1.22
2023-03-02T04:17:28.298Z,-1.17
2023-03-02T04:19:55.138Z,-1.22
2023-03-02T04:22:22.210Z,-1.32
2023-03-02T04:24:49.787Z,-1.28
2023-03-02T04:27:17.301Z,-1.25
2023-03-02T04:29:44.880Z,-1.18
2023-03-02T04:32:14.857Z,-1.15
2023-03-02T04:34:43.243Z,-1.21
2023-03-02T04:37:10.462Z,-1.14
2023-03-02T04:39:37.072Z,-1.16
2023-03-02T04:42:03.769Z,-1.14
2023-03-02T04:44:30.364Z,-1.11
2023-03-02T04:46:57.115Z,-1.17
2023-03-02T04:49:24.033Z,-1.18
2023-03-02T04:51:50.905Z,-1.21
2023-03-02T04:54:23.883Z,-1.14
2023-03-02T04:56:51.695Z,-1.15
2023-03-02T04:59:22.354Z,-1.16
2023-03-02T05:01:49.140Z,-1.15
2023-03-02T05:04:16.522Z,-1.10
2023-03-02T05:06:43.266Z,-1.11
2023-03-02T05:09:10.193Z,-1.15
2023-03-02T05:11:37.724Z,-1.21
2023-03-02T05:14:07.047Z,-1.21
2023-03-02T05:16:36.070Z,-1.23
2023-03-02T05:19:05.309Z,-1.18
2023-03-02T05:21:31.986Z,-1.25
2023-03-02T05:23:58.637Z,-1.30
2023-03-02T05:26:25.221Z,-1.22
2023-03-02T05:28:53.944Z,-1.22
2023-03-02T05:31:39.907Z,-1.24
2023-03-02T05:34:09.319Z,-1.26
2023-03-02T05:36:36.386Z,-1.20
2023-03-02T05:39:05.291Z,-1.21
2023-03-02T05:41:31.954Z,-1.24
2023-03-02T05:43:58.844Z,-1.37
2023-03-02T05:46:26.245Z,-1.35
2023-03-02T05:48:53.200Z,-1.35
2023-03-02T05:51:19.882Z,-1.33
2023-03-02T05:53:46.695Z,-1.35
2023-03-02T05:56:13.296Z,-1.36
2023-03-02T05:58:39.930Z,-1.27
2023-03-02T06:01:12.669Z,-1.24
2023-03-02T06:03:41.399Z,-1.22
2023-03-02T06:06:08.042Z,-1.27
2023-03-02T06:08:34.684Z,-1.18
2023-03-02T06:11:01.319Z,-1.18
2023-03-02T06:13:28.002Z,-1.25
2023-03-02T06:15:54.558Z,-1.14
2023-03-02T06:18:21.228Z,-1.17
2023-03-02T06:20:49.853Z,-1.08
2023-03-02T06:23:17.057Z,-1.02
2023-03-02T06:25:48.585Z,-1.02
2023-03-02T06:28:16.408Z,-0.96
2023-03-02T06:30:43.011Z,-0.95
2023-03-02T06:33:09.852Z,-0.96
2023-03-02T06:35:36.619Z,-0.92
2023-03-02T06:38:03.324Z,-0.97
2023-03-02T06:40:30.320Z,-0.88
2023-03-02T06:42:56.969Z,-0.86
2023-03-02T06:45:23.683Z,-0.84
2023-03-02T06:47:50.279Z,-0.84
2023-03-02T06:50:16.922Z,-0.74
2023-03-02T06:52:43.532Z,-0.72
2023-03-02T06:55:10.457Z,-0.68
2023-03-02T06:57:37.273Z,-0.61
2023-03-02T07:00:11.534Z,-0.52
2023-03-02T07:02:38.123Z,-0.43
2023-03-02T07:05:06.434Z,-0.36
2023-03-02T07:07:33.065Z,-0.32
2023-03-02T07:09:59.725Z,-0.26
2023-03-02T07:12:26.400Z,-0.24
2023-03-02T07:14:53.142Z,-0.18
2023-03-02T07:17:23.939Z,-0.05
2023-03-02T07:19:50.943Z,0.01
2023-03-02T07:22:17.542Z,0.08
2023-03-02T07:24:45.074Z,0.19
2023-03-02T07:27:12.110Z,0.35
2023-03-02T07:29:38.720Z,0.37
2023-03-02T07:32:06.918Z,0.41
2023-03-02T07:34:33.584Z,0.56
2023-03-02T07:37:00.181Z,0.66
2023-03-02T07:39:26.820Z,0.66
2023-03-02T07:41:53.372Z,0.72
2023-03-02T07:44:21.506Z,0.91
2023-03-02T07:46:48.130Z,1.06
2023-03-02T07:49:14.854Z,1.20
2023-03-02T07:51:41.480Z,1.13
2023-03-02T07:54:08.693Z,1.26
2023-03-02T07:56:35.353Z,1.31
2023-03-02T07:59:01.936Z,1.47
2023-03-02T08:01:28.646Z,1.67
2023-03-02T08:03:55.258Z,1.70
2023-03-02T08:06:21.995Z,1.81
2023-03-02T08:08:48.593Z,1.95
2023-03-02T08:11:17.445Z,1.88
2023-03-02T08:13:45.147Z,2.07
2023-03-02T08:16:13.691Z,2.06
2023-03-02T08:18:41.034Z,2.16
2023-03-02T08:21:12.484Z,2.23
2023-03-02T08:23:39.205Z,2.34
2023-03-02T08:26:05.847Z,2.59
2023-03-02T08:28:33.337Z,2.48
2023-03-02T08:31:02.843Z,2.70
2023-03-02T08:33:30.865Z,2.74
2023-03-02T08:36:01.843Z,2.78
2023-03-02T08:38:29.542Z,2.81
2023-03-02T08:40:56.234Z,2.96
2023-03-02T08:43:24.780Z,3.08
2023-03-02T08:45:57.941Z,3.15
2023-03-02T08:48:26.659Z,3.32
2023-03-02T08:51:02.100Z,3.32
2023-03-02T08:53:30.787Z,3.27
2023-03-02T08:55:57.473Z,3.42
2023-03-02T08:58:24.516Z,3.27
2023-03-02T09:00:51.586Z,3.19
2023-03-02T09:03:18.243Z,3.41
2023-03-02T09:05:45.095Z,3.63
2023-03-02T09:08:12.313Z,3.71
2023-03-02T09:10:39.532Z,3.95
2023-03-02T09:13:08.458Z,3.93
2023-03-02T09:15:35.492Z,4.15
2023-03-02T09:18:02.207Z,4.10
2023-03-02T09:20:28.805Z,4.06
2023-03-02T09:22:55.423Z,4.15
2023-03-02T09:25:22.182Z,4.18
2023-03-02T09:27:48.825Z,4.28
2023-03-02T09:30:15.942Z,4.31
2023-03-02T09:32:42.760Z,4.45
2023-03-02T09:35:09.723Z,4.44
2023-03-02T09:37:38.823Z,4.45
2023-03-02T09:40:16.366Z,4.57
2023-03-02T09:43:09.901Z,4.79
2023-03-02T09:46:07.571Z,4.76
2023-03-02T09:49:04.989Z,4.94
2023-03-02T09:51:33.900Z,4.87
2023-03-02T09:54:10.029Z,5.04
2023-03-02T09:56:42.564Z,5.08
2023-03-02T09:59:18.204Z,5.43
2023-03-02T10:02:08.780Z,5.37
2023-03-02T10:04:56.223Z,5.48
2023-03-02T10:07:27.269Z,5.39
2023-03-02T10:09:55.826Z,5.42
2023-03-02T10:12:43.262Z,5.54
2023-03-02T10:15:19.022Z,5.61
2023-03-02T10:18:05.125Z,5.38
2023-03-02T10:20:42.948Z,5.83
2023-03-02T10:23:15.504Z,5.71
2023-03-02T10:25:50.609Z,5.74
2023-03-02T10:28:24.143Z,5.65
2023-03-02T10:31:09.109Z,5.73
2023-03-02T10:33:39.112Z,5.68
2023-03-02T10:36:20.475Z,5.61
2023-03-02T10:38:47.789Z,5.58
2023-03-02T10:41:24.552Z,5.58
2023-03-02T10:43:54.151Z,5.77
2023-03-02T10:46:20.856Z,6.09
2023-03-02T10:48:51.416Z,6.17
2023-03-02T10:51:30.234Z,6.08
2023-03-02T10:54:23.600Z,6.53
2023-03-02T10:56:53.273Z,6.69
2023-03-02T10:59:28.934Z,6.74
2023-03-02T11:02:14.022Z,6.78
2023-03-02T11:04:40.773Z,6.45
2023-03-02T11:07:15.460Z,6.47
2023-03-02T11:09:42.042Z,6.77
2023-03-02T11:12:16.358Z,6.75
2023-03-02T11:14:43.357Z,6.83
2023-03-02T11:17:31.265Z,6.69
2023-03-02T11:19:57.895Z,6.67
2023-03-02T11:23:01.267Z,6.83
2023-03-02T11:25:40.534Z,6.95
2023-03-02T11:28:30.382Z,6.73
2023-03-02T11:30:59.871Z,6.68
2023-03-02T11:34:23.432Z,6.91
2023-03-02T11:37:02.470Z,6.86
2023-03-02T11:39:54.635Z,6.96
2023-03-02T11:42:27.800Z,7.11
2023-03-02T11:44:55.015Z,7.01
2023-03-02T11:47:22.648Z,7.15
2023-03-02T11:49:58.429Z,7.18
2023-03-02T11:52:28.515Z,7.28
2023-03-02T11:55:00.165Z,7.20
2023-03-02T11:57:35.203Z,7.43
2023-03-02T12:00:03.486Z,7.48
2023-03-02T12:02:39.027Z,7.45
2023-03-02T12:05:22.303Z,7.29
2023-03-02T12:08:00.450Z,7.48
2023-03-02T12:10:35.888Z,7.40
2023-03-02T12:13:18.646Z,7.60
2023-03-02T12:15:47.422Z,7.39
2023-03-02T12:18:23.101Z,7.56
2023-03-02T12:21:09.420Z,7.83
2023-03-02T12:23:53.071Z,7.88
2023-03-02T12:26:19.615Z,7.78
2023-03-02T12:29:10.786Z,7.68
2023-03-02T12:31:47.730Z,8.01
2023-03-02T12:34:32.383Z,7.96
2023-03-02T12:37:04.477Z,8.02
2023-03-02T12:39:39.570Z,7.98
2023-03-02T12:42:30.746Z,7.85
2023-03-02T12:45:15.884Z,7.84
2023-03-02T12:47:49.587Z,7.99
2023-03-02T12:50:20.531Z,8.16
2023-03-02T12:53:03.310Z,8.25
2023-03-02T12:55:30.473Z,8.48
2023-03-02T12:58:01.249Z,8.36
2023-03-02T13:00:31.004Z,8.30
2023-03-02T13:02:59.368Z,8.19
2023-03-02T13:05:30.264Z,8.21
2023-03-02T13:08:01.130Z,8.50
2023-03-02T13:10:36.065Z,8.37
2023-03-02T13:13:15.544Z,8.45
2023-03-02T13:15:52.500Z,8.32
2023-03-02T13:18:21.331Z,8.46
2023-03-02T13:20:49.509Z,8.39
2023-03-02T13:23:17.765Z,8.46
2023-03-02T13:25:55.549Z,8.48
2023-03-02T13:28:27.619Z,8.51
2023-03-02T13:31:21.723Z,8.55
2023-03-02T13:33:50.640Z,8.52
2023-03-02T13:36:29.436Z,8.72
2023-03-02T13:38:59.328Z,8.68
2023-03-02T13:41:31.294Z,8.61
2023-03-02T13:43:59.413Z,8.71
2023-03-02T13:46:35.681Z,8.75
2023-03-02T13:49:10.837Z,8.70
2023-03-02T13:51:41.404Z,8.68
2023-03-02T13:54:28.349Z,8.83
2023-03-02T13:56:58.557Z,8.86
2023-03-02T13:59:25.440Z,8.85
2023-03-02T14:01:52.078Z,8.75
2023-03-02T14:04:24.310Z,8.89
2023-03-02T14:06:52.407Z,8.68
2023-03-02T14:09:19.213Z,8.85
2023-03-02T14:11:52.657Z,8.67
2023-03-02T14:14:22.735Z,8.69
2023-03-02T14:16:49.815Z,8.88
2023-03-02T14:19:18.391Z,9.06
2023-03-02T14:21:46.503Z,9.15
2023-03-02T14:24:13.384Z,9.06
2023-03-02T14:26:46.356Z,9.18
2023-03-02T14:29:18.789Z,9.21
2023-03-02T14:31:45.381Z,8.97
2023-03-02T14:34:16.502Z,9.04
2023-03-02T14:36:46.182Z,8.98
2023-03-02T14:39:23.102Z,9.07
2023-03-02T14:41:53.858Z,9.20
2023-03-02T14:44:21.900Z,9.14
2023-03-02T14:46:48.682Z,9.12
2023-03-02T14:49:15.396Z,9.09
2023-03-02T14:51:45.556Z,9.00
2023-03-02T14:54:18.243Z,9.15
2023-03-02T14:56:45.450Z,9.18
2023-03-02T14:59:15.624Z,9.10
2023-03-02T15:01:44.555Z,9.07
2023-03-02T15:04:11.609Z,9.07
2023-03-02T15:06:41.241Z,9.11
2023-03-02T15:09:08.460Z,9.03
2023-03-02T15:11:35.648Z,9.01
2023-03-02T15:14:02.498Z,9.02
2023-03-02T15:16:29.239Z,8.97
2023-03-02T15:18:58.725Z,8.93
2023-03-02T15:21:26.464Z,8.89
2023-03-02T15:23:53.212Z,8.74
2023-03-02T15:26:19.886Z,8.77
2023-03-02T15:28:50.045Z,8.87
2023-03-02T15:31:17.935Z,8.91
2023-03-02T15:33:47.898Z,8.96
2023-03-02T15:36:14.660Z,8.87
2023-03-02T15:38:41.591Z,8.82
2023-03-02T15:41:12.348Z,8.84
2023-03-02T15:43:39.506Z,8.82
2023-03-02T15:46:09.166Z,8.77
2023-03-02T15:48:37.138Z,8.85
2023-03-02T15:51:06.379Z,8.82
2023-03-02T15:53:38.228Z,8.82
2023-03-02T15:56:09.433Z,8.69
2023-03-02T15:58:36.390Z,8.67
2023-03-02T16:01:11.749Z,8.66
2023-03-02T16:03:38.546Z,8.62
2023-03-02T16:06:05.418Z,8.57
2023-03-02T16:08:32.017Z,8.55
2023-03-02T16:11:00.139Z,8.44
2023-03-02T16:13:27.522Z,8.42
2023-03-02T16:15:54.146Z,8.34
2023-03-02T16:18:20.816Z,8.27
2023-03-02T16:20:47.774Z,8.18
2023-03-02T16:23:15.982Z,8.09
2023-03-02T16:25:43.804Z,8.03
2023-03-02T16:28:13.566Z,8.02
2023-03-02T16:30:41.428Z,7.91
2023-03-02T16:33:13.283Z,7.82
2023-03-02T16:35:41.055Z,7.74
2023-03-02T16:38:10.956Z,7.68
2023-03-02T16:40:40.583Z,7.62
2023-03-02T16:43:11.507Z,7.49
2023-03-02T16:45:38.686Z,7.36
2023-03-02T16:48:06.364Z,7.28
2023-03-02T16:50:33.860Z,7.21
2023-03-02T16:53:01.168Z,7.02
2023-03-02T16:55:28.455Z,6.89
2023-03-02T16:57:55.688Z,6.78
2023-03-02T17:00:23.492Z,6.69
2023-03-02T17:02:50.637Z,6.67
2023-03-02T17:05:19.292Z,6.50
2023-03-02T17:07:45.934Z,6.43
2023-03-02T17:10:18.909Z,6.43
2023-03-02T17:12:45.618Z,6.29
2023-03-02T17:15:13.998Z,5.84
2023-03-02T17:17:41.513Z,5.50
2023-03-02T17:20:11.722Z,5.22
2023-03-02T17:22:38.585Z,4.89
2023-03-02T17:25:05.753Z,4.74
2023-03-02T17:27:32.433Z,4.45
2023-03-02T17:29:59.334Z,4.33
2023-03-02T17:32:26.012Z,4.24
2023-03-02T17:34:52.620Z,4.09
2023-03-02T17:37:19.316Z,3.77
2023-03-02T17:39:45.995Z,3.43
2023-03-02T17:42:12.590Z,3.13
2023-03-02T17:44:40.542Z,2.99
2023-03-02T17:47:08.377Z,2.84
2023-03-02T17:49:45.219Z,2.94
2023-03-02T17:52:13.459Z,3.04
2023-03-02T17:54:40.500Z,3.05
2023-03-02T17:57:07.920Z,2.84
2023-03-02T17:59:34.718Z,2.99
2023-03-02T18:02:01.433Z,2.93
2023-03-02T18:04:28.181Z,2.58
2023-03-02T18:06:54.840Z,2.32
2023-03-02T18:09:21.755Z,2.21
2023-03-02T18:11:48.638Z,2.19
2023-03-02T18:14:17.292Z,2.30
2023-03-02T18:16:44.661Z,2.29
2023-03-02T18:19:11.772Z,2.23
2023-03-02T18:21:40.223Z,1.99
2023-03-02T18:24:07.689Z,1.78
2023-03-02T18:26:34.335Z,1.63
2023-03-02T18:29:00.864Z,1.56
2023-03-02T18:31:28.429Z,1.41
2023-03-02T18:33:55.205Z,1.37
2023-03-02T18:36:21.796Z,1.25
2023-03-02T18:38:48.391Z,1.23
2023-03-02T18:41:15.055Z,1.21
2023-03-02T18:43:42.201Z,1.22
2023-03-02T18:46:18.135Z,1.74
2023-03-02T18:48:45.662Z,2.16
2023-03-02T18:51:12.568Z,2.34
2023-03-02T18:53:39.757Z,2.26
2023-03-02T18:56:08.566Z,2.07
2023-03-02T18:58:35.314Z,2.20
2023-03-02T19:01:03.037Z,2.50
2023-03-02T19:03:30.274Z,2.51
2023-03-02T19:05:58.272Z,2.80
2023-03-02T19:08:25.654Z,3.09
2023-03-02T19:10:54.617Z,2.96
2023-03-02T19:13:21.725Z,2.51
2023-03-02T19:15:48.968Z,2.16
2023-03-02T19:18:17.918Z,1.79
2023-03-02T19:20:49.451Z,1.75
2023-03-02T19:23:17.554Z,2.24
2023-03-02T19:25:45.102Z,2.89
2023-03-02T19:28:12.677Z,3.09
2023-03-02T19:30:40.331Z,3.15
2023-03-02T19:33:09.541Z,2.81
2023-03-02T19:35:38.373Z,2.35
2023-03-02T19:38:06.298Z,2.11
2023-03-02T19:40:34.644Z,1.86
2023-03-02T19:43:01.795Z,1.92
2023-03-02T19:45:32.461Z,2.59
2023-03-02T19:48:01.362Z,2.65
2023-03-02T19:50:28.249Z,2.37
2023-03-02T19:52:55.465Z,2.23
2023-03-02T19:55:24.343Z,1.90
2023-03-02T19:57:59.617Z,1.58
2023-03-02T20:00:29.513Z,1.30
2023-03-02T20:02:58.016Z,0.98
2023-03-02T20:05:27.702Z,0.79
2023-03-02T20:07:56.098Z,0.66
2023-03-02T20:10:33.975Z,0.81
2023-03-02T20:13:01.604Z,0.90
2023-03-02T20:15:31.703Z,0.87
2023-03-02T20:18:02.632Z,0.82
2023-03-02T20:20:30.889Z,0.73
2023-03-02T20:22:57.804Z,0.44
2023-03-02T20:25:25.274Z,0.21
2023-03-02T20:27:52.963Z,0.00
2023-03-02T20:30:48.102Z,-0.05
2023-03-02T20:33:15.283Z,0.31
2023-03-02T20:35:44.275Z,0.71
2023-03-02T20:38:23.485Z,1.03
2023-03-02T20:40:51.152Z,1.04
2023-03-02T20:43:18.179Z,1.62
2023-03-02T20:45:45.429Z,2.42
2023-03-02T20:48:13.581Z,2.87
2023-03-02T20:50:41.339Z,2.77
2023-03-02T20:53:11.588Z,2.95
2023-03-02T20:55:39.004Z,3.19
2023-03-02T20:58:05.751Z,3.38
2023-03-02T21:00:34.516Z,3.41
2023-03-02T21:03:01.256Z,3.28
2023-03-02T21:05:29.622Z,3.45
2023-03-02T21:07:57.787Z,3.59
2023-03-02T21:10:29.688Z,3.58
2023-03-02T21:12:56.908Z,3.73
2023-03-02T21:15:27.110Z,3.69
2023-03-02T21:17:55.567Z,3.53
2023-03-02T21:20:24.359Z,3.49
2023-03-02T21:22:51.180Z,3.52
2023-03-02T21:25:20.171Z,3.47
2023-03-02T21:27:46.912Z,3.32
2023-03-02T21:30:20.410Z,3.41
2023-03-02T21:32:48.622Z,3.50
2023-03-02T21:35:18.236Z,3.56
2023-03-02T21:37:44.978Z,3.38
2023-03-02T21:40:26.599Z,3.43
2023-03-02T21:42:53.905Z,3.44
2023-03-02T21:45:22.779Z,3.42
2023-03-02T21:47:51.047Z,3.45
2023-03-02T21:50:23.047Z,3.65
2023-03-02T21:52:49.702Z,3.59
2023-03-02T21:55:16.540Z,3.53
2023-03-02T21:57:43.733Z,3.40
2023-03-02T22:00:19.951Z,3.28
2023-03-02T22:02:47.511Z,3.37
2023-03-02T22:05:14.326Z,3.48
2023-03-02T22:07:40.975Z,3.34
2023-03-02T22:10:15.454Z,3.34
2023-03-02T22:12:44.516Z,3.32
2023-03-02T22:15:14.523Z,3.23
2023-03-02T22:17:42.279Z,3.19
2023-03-02T22:20:19.883Z,3.03
2023-03-02T22:22:49.676Z,2.65
2023-03-02T22:25:18.296Z,2.08
2023-03-02T22:27:46.547Z,2.08
2023-03-02T22:30:20.072Z,2.30
2023-03-02T22:32:47.637Z,2.43
2023-03-02T22:35:23.481Z,2.28
2023-03-02T22:37:51.998Z,1.90
2023-03-02T22:40:36.815Z,1.47
2023-03-02T22:43:15.497Z,1.58
2023-03-02T22:45:42.399Z,1.28
2023-03-02T22:48:18.635Z,1.08
2023-03-02T22:50:47.011Z,0.92
2023-03-02T22:53:31.598Z,0.77
2023-03-02T22:56:03.575Z,0.92
2023-03-02T22:58:42.718Z,0.67
2023-03-02T23:01:37.075Z,0.43
2023-03-02T23:04:12.823Z,0.31
2023-03-02T23:06:53.774Z,0.27
2023-03-02T23:09:24.344Z,0.34
2023-03-02T23:11:51.674Z,0.26
2023-03-02T23:14:28.357Z,0.57
2023-03-02T23:17:23.444Z,0.35
2023-03-02T23:19:51.306Z,0.28
2023-03-02T23:22:18.945Z,0.26
2023-03-02T23:24:47.593Z,0.14
2023-03-02T23:27:14.257Z,1.22
2023-03-02T23:29:41.013Z,1.80
2023-03-02T23:32:07.744Z,2.14
2023-03-02T23:34:34.433Z,2.23
2023-03-02T23:37:01.046Z,2.34
2023-03-02T23:39:27.820Z,2.38
2023-03-02T23:41:54.946Z,2.43
2023-03-02T23:44:21.786Z,2.38
2023-03-02T23:46:49.297Z,2.31
2023-03-02T23:49:16.241Z,2.45
2023-03-02T23:51:43.476Z,2.46
2023-03-02T23:54:10.612Z,2.21
2023-03-02T23:56:37.327Z,2.01
2023-03-02T23:59:04.702Z,1.83
